createdAt,value
2022-09-23T00:01:21.989Z,51.62
2022-09-23T00:03:49.938Z,51.79
2022-09-23T00:06:22.547Z,52.03
2022-09-23T00:08:51.899Z,52.18
2022-09-23T00:11:23.755Z,52.42
2022-09-23T00:13:55.976Z,52.67
2022-09-23T00:16:28.626Z,52.75
2022-09-23T00:18:56.752Z,52.13
2022-09-23T00:21:24.748Z,52.54
2022-09-23T00:23:54.021Z,52.52
2022-09-23T00:26:23.533Z,52.60
2022-09-23T00:28:51.433Z,52.92
2022-09-23T00:31:25.180Z,52.82
2022-09-23T00:34:01.567Z,53.14
2022-09-23T00:36:30.846Z,53.17
2022-09-23T00:38:58.364Z,52.95
2022-09-23T00:41:26.552Z,52.98
2022-09-23T00:43:57.192Z,53.18
2022-09-23T00:46:35.283Z,53.42
2022-09-23T00:49:29.530Z,53.47
2022-09-23T00:52:06.837Z,53.55
2022-09-23T00:54:34.231Z,53.35
2022-09-23T00:57:02.363Z,53.47
2022-09-23T00:59:30.059Z,53.52
2022-09-23T01:02:00.257Z,53.51
2022-09-23T01:04:29.916Z,53.87
2022-09-23T01:06:57.482Z,53.73
2022-09-23T01:09:25.612Z,53.91
2022-09-23T01:12:39.197Z,53.95
2022-09-23T01:15:23.140Z,53.89
2022-09-23T01:18:16.780Z,53.54
2022-09-23T01:21:08.808Z,53.72
2022-09-23T01:24:00.036Z,53.72
2022-09-23T01:26:40.826Z,54.00
2022-09-23T01:29:48.180Z,53.82
2022-09-23T01:32:58.448Z,54.35
2022-09-23T01:35:48.106Z,54.63
2022-09-23T01:38:41.017Z,54.76
2022-09-23T01:41:38.753Z,54.88
2022-09-23T01:44:51.927Z,54.73
2022-09-23T01:47:41.897Z,54.80
2022-09-23T01:50:19.581Z,54.76
2022-09-23T01:52:48.562Z,54.78
2022-09-23T01:55:47.738Z,54.90
2022-09-23T01:58:27.632Z,55.06
2022-09-23T02:01:05.285Z,55.16
2022-09-23T02:03:54.996Z,55.22
2022-09-23T02:06:32.052Z,55.21
2022-09-23T02:09:15.219Z,55.42
2022-09-23T02:11:48.584Z,55.35
2022-09-23T02:14:29.373Z,55.29
2022-09-23T02:17:07.185Z,55.10
2022-09-23T02:19:50.639Z,55.17
2022-09-23T02:22:28.359Z,54.83
2022-09-23T02:24:58.085Z,54.75
2022-09-23T02:27:50.569Z,54.93
2022-09-23T02:30:26.468Z,54.84
2022-09-23T02:33:11.056Z,54.87
2022-09-23T02:36:03.452Z,54.75
2022-09-23T02:38:46.382Z,54.92
2022-09-23T02:41:48.885Z,54.86
2022-09-23T02:44:20.421Z,54.71
2022-09-23T02:46:47.689Z,55.06
2022-09-23T02:49:28.369Z,55.07
2022-09-23T02:52:00.130Z,54.92
2022-09-23T02:54:29.247Z,54.64
2022-09-23T02:56:56.669Z,54.93
2022-09-23T02:59:24.663Z,54.65
2022-09-23T03:02:19.145Z,54.91
2022-09-23T03:05:17.755Z,54.52
2022-09-23T03:08:15.840Z,54.81
2022-09-23T03:11:12.009Z,54.95
2022-09-23T03:14:18.223Z,54.61
2022-09-23T03:17:13.774Z,54.68
2022-09-23T03:19:58.602Z,54.82
2022-09-23T03:22:36.870Z,55.06
2022-09-23T03:25:12.649Z,54.97
2022-09-23T03:27:41.312Z,54.95
2022-09-23T03:30:10.462Z,55.11
2022-09-23T03:32:41.918Z,54.96
2022-09-23T03:35:09.758Z,54.66
2022-09-23T03:38:00.239Z,55.11
2022-09-23T03:40:32.094Z,55.13
2022-09-23T03:43:01.034Z,55.31
2022-09-23T03:45:33.549Z,54.97
2022-09-23T03:48:01.905Z,54.92
2022-09-23T03:50:29.560Z,55.21
2022-09-23T03:52:56.828Z,55.43
2022-09-23T03:55:24.191Z,55.18
2022-09-23T03:57:53.894Z,55.32
2022-09-23T04:00:21.048Z,55.13
2022-09-23T04:02:48.320Z,55.30
2022-09-23T04:05:15.680Z,55.48
2022-09-23T04:07:42.845Z,55.32
2022-09-23T04:10:11.307Z,55.25
2022-09-23T04:12:38.644Z,55.30
2022-09-23T04:15:06.839Z,55.25
2022-09-23T04:17:34.017Z,55.68
2022-09-23T04:20:01.502Z,55.60
2022-09-23T04:22:28.690Z,55.12
2022-09-23T04:24:55.845Z,55.26
2022-09-23T04:27:22.986Z,55.34
2022-09-23T04:29:50.545Z,55.31
2022-09-23T04:32:17.701Z,55.27
2022-09-23T04:34:44.959Z,55.14
2022-09-23T04:37:12.111Z,55.47
2022-09-23T04:39:39.297Z,55.69
2022-09-23T04:42:06.691Z,55.69
2022-09-23T04:44:33.913Z,56.23
2022-09-23T04:47:01.082Z,55.97
2022-09-23T04:49:28.223Z,56.17
2022-09-23T04:51:55.440Z,56.67
2022-09-23T04:54:22.653Z,56.90
2022-09-23T04:56:49.843Z,56.54
2022-09-23T04:59:17.116Z,56.28
2022-09-23T05:01:44.352Z,56.73
2022-09-23T05:04:12.004Z,56.39
2022-09-23T05:06:39.420Z,56.79
2022-09-23T05:09:08.824Z,56.66
2022-09-23T05:11:36.298Z,56.79
2022-09-23T05:14:03.861Z,56.54
2022-09-23T05:16:31.723Z,56.75
2022-09-23T05:18:59.041Z,56.94
2022-09-23T05:21:27.758Z,56.31
2022-09-23T05:23:57.600Z,56.91
2022-09-23T05:26:28.306Z,56.68
2022-09-23T05:28:56.738Z,56.61
2022-09-23T05:31:30.017Z,56.57
2022-09-23T05:34:00.917Z,56.41
2022-09-23T05:36:35.576Z,56.68
2022-09-23T05:39:05.528Z,57.05
2022-09-23T05:41:32.813Z,56.71
2022-09-23T05:44:00.087Z,56.86
2022-09-23T05:46:30.592Z,56.72
2022-09-23T05:49:02.911Z,56.71
2022-09-23T05:51:33.300Z,56.78
2022-09-23T05:54:01.554Z,56.55
2022-09-23T05:56:29.059Z,56.92
2022-09-23T05:59:00.463Z,56.93
2022-09-23T06:01:31.651Z,57.06
2022-09-23T06:04:00.889Z,56.64
2022-09-23T06:06:32.926Z,56.94
2022-09-23T06:09:01.062Z,56.95
2022-09-23T06:11:32.698Z,57.01
2022-09-23T06:14:00.916Z,57.10
2022-09-23T06:16:31.387Z,57.21
2022-09-23T06:19:03.167Z,57.18
2022-09-23T06:21:38.979Z,57.36
2022-09-23T06:24:09.348Z,57.43
2022-09-23T06:26:38.058Z,57.52
2022-09-23T06:29:12.494Z,57.45
2022-09-23T06:31:40.104Z,57.33
2022-09-23T06:34:12.730Z,57.43
2022-09-23T06:36:46.228Z,57.53
2022-09-23T06:39:16.709Z,57.30
2022-09-23T06:41:44.927Z,57.38
2022-09-23T06:44:13.762Z,57.51
2022-09-23T06:46:42.104Z,57.34
2022-09-23T06:49:09.346Z,57.29
2022-09-23T06:51:36.527Z,57.64
2022-09-23T06:54:03.899Z,57.66
2022-09-23T06:56:34.882Z,57.67
2022-09-23T06:59:09.487Z,57.75
2022-09-23T07:01:36.861Z,58.22
2022-09-23T07:04:04.207Z,57.99
2022-09-23T07:06:31.711Z,57.93
2022-09-23T07:08:58.855Z,57.89
2022-09-23T07:11:26.126Z,58.17
2022-09-23T07:13:53.311Z,58.99
2022-09-23T07:16:20.618Z,59.20
2022-09-23T07:18:48.137Z,59.06
2022-09-23T07:21:18.789Z,59.67
2022-09-23T07:23:49.213Z,59.21
2022-09-23T07:26:18.112Z,59.30
2022-09-23T07:28:45.338Z,59.00
2022-09-23T07:31:23.124Z,58.88
2022-09-23T07:33:58.599Z,58.70
2022-09-23T07:36:26.121Z,58.08
2022-09-23T07:38:54.082Z,57.69
2022-09-23T07:41:21.396Z,57.50
2022-09-23T07:43:48.565Z,56.86
2022-09-23T07:46:17.974Z,56.78
2022-09-23T07:48:46.357Z,56.04
2022-09-23T07:51:19.645Z,55.48
2022-09-23T07:53:49.642Z,55.11
2022-09-23T07:56:19.190Z,54.75
2022-09-23T07:58:48.170Z,54.31
2022-09-23T08:01:15.421Z,53.74
2022-09-23T08:03:45.781Z,53.18
2022-09-23T08:06:13.908Z,52.54
2022-09-23T08:08:42.065Z,52.02
2022-09-23T08:11:12.833Z,52.43
2022-09-23T08:13:41.588Z,51.39
2022-09-23T08:16:09.949Z,52.13
2022-09-23T08:18:38.269Z,52.10
2022-09-23T08:21:06.010Z,51.90
2022-09-23T08:23:33.191Z,51.89
2022-09-23T08:26:05.551Z,51.24
2022-09-23T08:28:33.263Z,50.77
2022-09-23T08:31:01.466Z,50.59
2022-09-23T08:33:28.952Z,50.06
2022-09-23T08:36:01.977Z,50.00
2022-09-23T08:38:30.384Z,49.70
2022-09-23T08:41:43.533Z,49.45
2022-09-23T08:44:21.936Z,49.18
2022-09-23T08:47:09.081Z,48.64
2022-09-23T08:49:48.221Z,48.59
2022-09-23T08:52:32.052Z,48.90
2022-09-23T08:54:59.727Z,48.13
2022-09-23T08:58:24.933Z,47.78
2022-09-23T09:01:43.670Z,46.82
2022-09-23T09:04:33.331Z,46.56
2022-09-23T09:07:35.204Z,47.48
2022-09-23T09:10:33.358Z,46.81
2022-09-23T09:13:04.693Z,46.44
2022-09-23T09:15:40.801Z,46.16
2022-09-23T09:18:19.660Z,45.58
2022-09-23T09:21:12.623Z,45.57
2022-09-23T09:23:56.958Z,45.71
2022-09-23T09:26:29.247Z,45.55
2022-09-23T09:29:23.693Z,45.97
2022-09-23T09:31:58.804Z,46.09
2022-09-23T09:34:49.808Z,46.26
2022-09-23T09:37:45.117Z,44.59
2022-09-23T09:40:14.526Z,44.33
2022-09-23T09:42:47.061Z,44.52
2022-09-23T09:46:07.121Z,43.68
2022-09-23T09:48:45.781Z,43.43
2022-09-23T09:51:21.398Z,43.78
2022-09-23T09:53:50.119Z,43.87
2022-09-23T09:56:21.519Z,44.02
2022-09-23T09:59:00.816Z,43.89
2022-09-23T10:01:33.061Z,43.88
2022-09-23T10:04:33.894Z,43.91
2022-09-23T10:07:14.005Z,42.94
2022-09-23T10:09:50.119Z,43.33
2022-09-23T10:12:21.140Z,42.50
2022-09-23T10:14:51.885Z,41.93
2022-09-23T10:17:33.736Z,41.15
2022-09-23T10:20:08.097Z,40.90
2022-09-23T10:22:41.918Z,41.34
2022-09-23T10:25:19.158Z,41.21
2022-09-23T10:27:46.473Z,40.20
2022-09-23T10:30:27.346Z,40.00
2022-09-23T10:32:55.956Z,38.91
2022-09-23T10:35:25.619Z,38.34
2022-09-23T10:37:54.999Z,37.08
2022-09-23T10:40:37.461Z,33.88
2022-09-23T10:43:42.083Z,30.81
2022-09-23T10:46:20.273Z,28.57
2022-09-23T10:49:16.160Z,26.17
2022-09-23T10:52:26.932Z,24.69
2022-09-23T10:55:20.460Z,22.40
2022-09-23T10:58:25.118Z,21.41
2022-09-23T11:01:23.907Z,21.43
2022-09-23T11:04:37.189Z,20.33
2022-09-23T11:07:37.097Z,19.85
2022-09-23T11:10:52.708Z,19.88
2022-09-23T11:13:54.882Z,19.45
2022-09-23T11:16:41.761Z,18.68
2022-09-23T11:19:50.129Z,17.98
2022-09-23T11:22:43.690Z,17.62
2022-09-23T11:25:47.154Z,17.57
2022-09-23T11:28:44.707Z,16.87
2022-09-23T11:32:04.127Z,17.93
2022-09-23T11:34:54.324Z,18.06
2022-09-23T11:37:51.048Z,18.76
2022-09-23T11:40:42.385Z,18.97
2022-09-23T11:43:23.157Z,18.83
2022-09-23T11:46:30.752Z,19.52
2022-09-23T11:49:22.815Z,20.37
2022-09-23T11:51:54.330Z,20.10
2022-09-23T11:54:48.924Z,21.32
2022-09-23T11:57:49.527Z,21.22
2022-09-23T12:00:26.149Z,20.97
2022-09-23T12:03:45.086Z,22.45
2022-09-23T12:06:45.676Z,22.91
2022-09-23T12:10:05.032Z,23.26
2022-09-23T12:12:57.421Z,23.71
2022-09-23T12:16:02.143Z,24.62
2022-09-23T12:19:00.273Z,25.33
2022-09-23T12:22:09.244Z,25.23
2022-09-23T12:24:56.430Z,26.65
2022-09-23T12:27:37.482Z,27.01
2022-09-23T12:30:20.512Z,27.69
2022-09-23T12:32:48.378Z,27.83
2022-09-23T12:35:32.997Z,28.41
2022-09-23T12:38:02.287Z,27.52
2022-09-23T12:40:36.786Z,28.63
2022-09-23T12:43:06.163Z,28.36
2022-09-23T12:45:39.846Z,28.25
2022-09-23T12:48:16.287Z,28.66
2022-09-23T12:50:54.589Z,28.60
2022-09-23T12:53:34.968Z,29.22
2022-09-23T12:56:19.515Z,28.93
2022-09-23T12:58:47.192Z,28.15
2022-09-23T13:01:25.977Z,28.57
2022-09-23T13:03:58.790Z,28.56
2022-09-23T13:06:41.032Z,28.90
2022-09-23T13:09:21.522Z,28.69
2022-09-23T13:11:49.395Z,29.03
2022-09-23T13:14:27.499Z,28.98
2022-09-23T13:16:57.209Z,29.14
2022-09-23T13:19:27.515Z,28.96
2022-09-23T13:21:54.878Z,28.94
2022-09-23T13:24:25.223Z,28.51
2022-09-23T13:27:19.881Z,28.52
2022-09-23T13:30:19.311Z,28.56
2022-09-23T13:33:03.472Z,29.04
2022-09-23T13:35:39.690Z,29.19
2022-09-23T13:38:31.571Z,29.03
2022-09-23T13:41:11.126Z,29.47
2022-09-23T13:43:43.595Z,29.12
2022-09-23T13:46:17.966Z,28.87
2022-09-23T13:48:48.430Z,29.06
2022-09-23T13:51:36.520Z,29.18
2022-09-23T13:54:05.622Z,28.97
2022-09-23T13:56:34.235Z,28.81
2022-09-23T13:59:27.735Z,29.11
2022-09-23T14:02:14.248Z,29.11
2022-09-23T14:04:41.693Z,29.15
2022-09-23T14:07:14.262Z,28.44
2022-09-23T14:09:49.931Z,28.94
2022-09-23T14:12:18.334Z,28.99
2022-09-23T14:14:45.801Z,28.33
2022-09-23T14:17:22.376Z,28.75
2022-09-23T14:19:51.433Z,28.66
2022-09-23T14:22:29.334Z,28.45
2022-09-23T14:24:58.748Z,27.83
2022-09-23T14:27:32.860Z,28.19
2022-09-23T14:30:03.792Z,28.42
2022-09-23T14:32:31.825Z,28.42
2022-09-23T14:35:02.000Z,28.93
2022-09-23T14:37:38.247Z,28.77
2022-09-23T14:40:15.128Z,29.52
2022-09-23T14:43:05.877Z,28.64
2022-09-23T14:45:40.072Z,28.68
2022-09-23T14:48:17.700Z,28.45
2022-09-23T14:51:10.795Z,28.14
2022-09-23T14:53:42.762Z,28.00
2022-09-23T14:56:20.730Z,27.94
2022-09-23T14:59:00.358Z,27.42
2022-09-23T15:01:33.413Z,28.30
2022-09-23T15:04:17.601Z,27.92
2022-09-23T15:06:58.315Z,28.26
2022-09-23T15:09:31.466Z,27.87
2022-09-23T15:12:05.213Z,28.03
2022-09-23T15:14:41.777Z,28.19
2022-09-23T15:17:36.721Z,28.31
2022-09-23T15:20:17.242Z,28.57
2022-09-23T15:22:51.529Z,28.62
2022-09-23T15:25:33.844Z,28.40
2022-09-23T15:28:08.622Z,29.29
2022-09-23T15:30:37.399Z,29.67
2022-09-23T15:33:05.797Z,30.35
2022-09-23T15:35:33.348Z,30.94
2022-09-23T15:38:01.880Z,31.38
2022-09-23T15:40:36.501Z,31.38
2022-09-23T15:43:36.298Z,31.98
2022-09-23T15:46:20.537Z,32.67
2022-09-23T15:48:59.109Z,33.28
2022-09-23T15:51:27.901Z,33.57
2022-09-23T15:53:55.772Z,33.74
2022-09-23T15:56:24.965Z,34.22
2022-09-23T15:58:52.169Z,34.52
2022-09-23T16:01:32.289Z,34.39
2022-09-23T16:03:59.711Z,34.97
2022-09-23T16:06:27.272Z,35.24
2022-09-23T16:08:55.077Z,35.27
2022-09-23T16:11:26.332Z,35.59
2022-09-23T16:13:54.102Z,36.18
2022-09-23T16:16:21.441Z,36.79
2022-09-23T16:18:50.059Z,36.85
2022-09-23T16:21:21.350Z,36.95
2022-09-23T16:23:55.031Z,37.36
2022-09-23T16:26:31.013Z,37.51
2022-09-23T16:29:00.613Z,37.97
2022-09-23T16:31:28.659Z,38.30
2022-09-23T16:33:56.251Z,38.80
2022-09-23T16:36:42.598Z,39.15
2022-09-23T16:39:13.984Z,39.24
2022-09-23T16:41:41.458Z,39.51
2022-09-23T16:44:08.677Z,39.95
2022-09-23T16:46:36.400Z,39.90
2022-09-23T16:49:04.310Z,40.32
2022-09-23T16:51:34.457Z,40.42
2022-09-23T16:54:01.876Z,40.72
2022-09-23T16:56:29.497Z,40.78
2022-09-23T16:58:57.406Z,41.28
2022-09-23T17:01:28.625Z,41.44
2022-09-23T17:03:55.815Z,41.63
2022-09-23T17:06:22.955Z,41.92
2022-09-23T17:08:50.148Z,42.02
2022-09-23T17:11:17.975Z,42.12
2022-09-23T17:13:45.685Z,42.22
2022-09-23T17:16:31.197Z,42.59
2022-09-23T17:18:58.956Z,42.79
2022-09-23T17:22:22.119Z,42.98
2022-09-23T17:24:49.261Z,43.37
2022-09-23T17:27:16.500Z,43.49
2022-09-23T17:29:43.756Z,43.49
2022-09-23T17:32:11.072Z,43.53
2022-09-23T17:34:38.723Z,43.71
2022-09-23T17:37:06.197Z,43.93
2022-09-23T17:39:33.551Z,44.09
2022-09-23T17:42:01.256Z,44.29
2022-09-23T17:44:40.772Z,44.73
2022-09-23T17:47:08.143Z,44.92
2022-09-23T17:49:35.697Z,44.92
2022-09-23T17:52:03.923Z,44.92
2022-09-23T17:54:35.054Z,44.97
2022-09-23T17:57:03.474Z,45.28
2022-09-23T17:59:30.958Z,45.39
2022-09-23T18:01:58.447Z,45.24
2022-09-23T18:04:25.888Z,45.38
2022-09-23T18:06:53.158Z,45.41
2022-09-23T18:09:21.091Z,45.69
2022-09-23T18:11:48.627Z,45.70
2022-09-23T18:14:23.649Z,45.65
2022-09-23T18:16:53.458Z,45.89
2022-09-23T18:19:23.556Z,45.99
2022-09-23T18:21:55.986Z,46.18
2022-09-23T18:24:33.073Z,46.25
2022-09-23T18:27:02.212Z,46.00
2022-09-23T18:29:30.291Z,46.16
2022-09-23T18:31:58.530Z,46.33
2022-09-23T18:34:25.774Z,46.44
2022-09-23T18:36:54.013Z,46.52
2022-09-23T18:39:22.209Z,46.87
2022-09-23T18:41:50.670Z,46.81
2022-09-23T18:44:18.388Z,46.87
2022-09-23T18:46:45.620Z,46.91
2022-09-23T18:49:13.288Z,47.03
2022-09-23T18:52:01.899Z,46.91
2022-09-23T18:54:30.878Z,47.05
2022-09-23T18:56:59.343Z,47.10
2022-09-23T18:59:29.030Z,47.23
2022-09-23T19:01:57.499Z,47.44
2022-09-23T19:04:27.237Z,47.49
2022-09-23T19:06:56.251Z,47.52
2022-09-23T19:09:23.983Z,47.50
2022-09-23T19:11:53.084Z,47.66
2022-09-23T19:14:21.059Z,47.91
2022-09-23T19:16:48.788Z,48.15
2022-09-23T19:19:16.795Z,48.00
2022-09-23T19:21:44.076Z,48.09
2022-09-23T19:24:15.175Z,48.31
2022-09-23T19:26:45.258Z,48.23
2022-09-23T19:29:18.435Z,48.47
2022-09-23T19:31:47.416Z,48.47
2022-09-23T19:34:19.349Z,48.56
2022-09-23T19:36:48.234Z,48.79
2022-09-23T19:39:25.590Z,48.88
2022-09-23T19:41:55.255Z,49.01
2022-09-23T19:44:25.615Z,49.09
2022-09-23T19:46:56.890Z,49.40
2022-09-23T19:49:29.493Z,49.82
2022-09-23T19:51:58.442Z,49.57
2022-09-23T19:54:27.085Z,49.62
2022-09-23T19:56:55.126Z,49.51
2022-09-23T19:59:22.947Z,49.81
2022-09-23T20:01:53.517Z,49.96
2022-09-23T20:04:23.053Z,49.99
2022-09-23T20:06:50.651Z,49.96
2022-09-23T20:09:18.518Z,50.11
2022-09-23T20:11:47.835Z,49.84
2022-09-23T20:14:15.668Z,50.23
2022-09-23T20:16:47.641Z,50.14
2022-09-23T20:19:15.177Z,50.35
2022-09-23T20:21:43.716Z,50.41
2022-09-23T20:24:12.428Z,50.29
2022-09-23T20:26:41.326Z,50.34
2022-09-23T20:29:09.063Z,50.22
2022-09-23T20:31:36.861Z,50.30
2022-09-23T20:34:06.096Z,50.21
2022-09-23T20:36:35.622Z,50.32
2022-09-23T20:39:07.223Z,50.11
2022-09-23T20:41:38.102Z,50.25
2022-09-23T20:44:10.469Z,50.23
2022-09-23T20:46:39.521Z,50.45
2022-09-23T20:49:08.821Z,50.08
2022-09-23T20:51:38.605Z,50.53
2022-09-23T20:54:06.563Z,50.66
2022-09-23T20:56:34.470Z,50.73
2022-09-23T20:59:05.093Z,50.81
2022-09-23T21:01:36.672Z,51.11
2022-09-23T21:04:04.679Z,51.14
2022-09-23T21:06:34.573Z,51.04
2022-09-23T21:09:02.359Z,50.99
2022-09-23T21:11:29.835Z,51.07
2022-09-23T21:13:57.020Z,51.06
2022-09-23T21:16:25.255Z,51.08
2022-09-23T21:18:54.251Z,51.38
2022-09-23T21:21:22.533Z,51.34
2022-09-23T21:23:51.090Z,51.51
2022-09-23T21:26:26.974Z,51.67
2022-09-23T21:29:01.499Z,51.64
2022-09-23T21:31:35.562Z,51.77
2022-09-23T21:34:09.865Z,52.00
2022-09-23T21:36:40.256Z,52.14
2022-09-23T21:39:09.374Z,52.08
2022-09-23T21:41:38.539Z,52.22
2022-09-23T21:44:06.780Z,52.37
2022-09-23T21:46:35.558Z,52.40
2022-09-23T21:49:04.244Z,52.35
2022-09-23T21:51:38.392Z,51.88
2022-09-23T21:54:08.121Z,51.69
2022-09-23T21:56:35.361Z,51.60
2022-09-23T21:59:04.177Z,51.30
2022-09-23T22:01:35.623Z,51.45
2022-09-23T22:04:06.770Z,51.53
2022-09-23T22:06:37.222Z,51.71
2022-09-23T22:09:09.075Z,52.09
2022-09-23T22:11:38.109Z,52.37
2022-09-23T22:14:10.070Z,52.22
2022-09-23T22:16:37.441Z,52.45
2022-09-23T22:19:05.908Z,52.65
2022-09-23T22:21:36.520Z,52.60
2022-09-23T22:24:07.012Z,52.74
2022-09-23T22:26:44.592Z,52.75
2022-09-23T22:29:15.635Z,52.79
2022-09-23T22:31:42.907Z,53.03
2022-09-23T22:34:25.512Z,52.69
2022-09-23T22:36:59.667Z,52.98
2022-09-23T22:39:29.072Z,52.90
2022-09-23T22:41:59.495Z,52.78
2022-09-23T22:44:26.721Z,52.61
2022-09-23T22:46:53.874Z,52.52
2022-09-23T22:49:21.109Z,52.73
2022-09-23T22:51:48.393Z,53.24
2022-09-23T22:54:15.549Z,53.17
2022-09-23T22:56:42.862Z,53.44
2022-09-23T22:59:12.697Z,53.59
2022-09-23T23:01:40.698Z,53.62
2022-09-23T23:04:09.906Z,53.37
2022-09-23T23:06:37.335Z,52.99
2022-09-23T23:09:11.414Z,53.30
2022-09-23T23:11:38.589Z,53.22
2022-09-23T23:14:05.911Z,53.03
2022-09-23T23:16:33.287Z,53.37
2022-09-23T23:19:06.798Z,53.47
2022-09-23T23:21:34.537Z,53.62
2022-09-23T23:24:02.461Z,53.56
2022-09-23T23:26:30.986Z,53.79
2022-09-23T23:28:58.489Z,53.64
2022-09-23T23:31:28.917Z,53.71
2022-09-23T23:33:56.264Z,53.78
2022-09-23T23:36:24.074Z,53.77
2022-09-23T23:38:52.066Z,53.86
2022-09-23T23:41:22.998Z,54.13
2022-09-23T23:43:59.988Z,54.19
2022-09-23T23:46:30.413Z,54.70
2022-09-23T23:48:58.242Z,54.51
2022-09-23T23:51:27.254Z,54.57
2022-09-23T23:53:55.993Z,54.77
2022-09-23T23:56:26.167Z,54.77
2022-09-23T23:59:01.864Z,54.79
